Time;durP1;ratioP1;P1;durP2;ratioP2;P2;SDS_P1;SDS_P2;PMS_P1;PMS_P2;Temp;Humidity;BMP_temperature;BMP_pressure;BME280_temperature;BME280_humidity;BME280_pressure;Samples;Min_cycle;Max_cycle;Signal;HPM_P1;HPM_P2
2021/01/22 00:00:47;;;;;;;1.38;0.43;;;14.70;59.70;;;;;;5013833;28;20491;-45
2021/01/22 00:03:13;;;;;;;0.85;0.20;;;14.60;59.70;;;;;;5031751;28;20032;-46
2021/01/22 00:05:38;;;;;;;0.45;0.30;;;14.60;59.70;;;;;;5031773;28;20033;-45
2021/01/22 00:08:04;;;;;;;0.20;0.20;;;15.00;59.90;;;;;;5031297;28;20028;-45
2021/01/22 00:10:30;;;;;;;0.63;0.30;;;14.70;59.80;;;;;;5031399;28;20033;-47
2021/01/22 00:12:56;;;;;;;0.80;0.32;;;14.70;59.80;;;;;;5031442;28;20104;-45
2021/01/22 00:15:21;;;;;;;0.25;0.20;;;14.70;59.80;;;;;;5032097;28;20095;-46
2021/01/22 00:17:47;;;;;;;0.30;0.20;;;14.60;59.80;;;;;;5031405;28;20441;-46
2021/01/22 00:20:19;;;;;;;0.57;0.40;;;14.60;59.80;;;;;;5033522;28;20018;-45
2021/01/22 00:22:45;;;;;;;0.40;0.30;;;14.70;60.50;;;;;;5034760;28;20033;-46
2021/01/22 00:25:11;;;;;;;1.00;0.40;;;14.60;59.80;;;;;;5035247;28;20037;-45
2021/01/22 00:27:37;;;;;;;0.63;0.50;;;14.60;59.90;;;;;;5035217;28;20025;-47
2021/01/22 00:30:10;;;;;;;0.38;0.22;;;14.60;59.90;;;;;;5034958;28;20112;-46
2021/01/22 00:32:42;;;;;;;0.40;0.30;;;14.60;59.90;;;;;;5034710;28;20569;-46
2021/01/22 00:35:08;;;;;;;0.63;0.20;;;14.60;60.00;;;;;;5034895;28;20029;-47
2021/01/22 00:37:34;;;;;;;0.50;0.32;;;14.60;60.00;;;;;;5034997;28;20472;-46
2021/01/22 00:40:00;;;;;;;0.80;0.30;;;14.60;60.00;;;;;;5034673;28;20022;-45
2021/01/22 00:42:25;;;;;;;0.63;0.22;;;14.50;60.00;;;;;;5034356;28;20033;-45
2021/01/22 00:44:51;;;;;;;0.60;0.50;;;14.50;60.00;;;;;;5034806;28;20053;-46
2021/01/22 00:47:16;;;;;;;0.30;0.20;;;14.50;60.00;;;;;;5034898;28;20061;-46
2021/01/22 00:49:42;;;;;;;1.33;0.30;;;14.50;60.00;;;;;;5034760;28;20033;-47
2021/01/22 00:52:07;;;;;;;0.50;0.30;;;14.50;60.00;;;;;;5034750;28;20065;-46
2021/01/22 00:54:33;;;;;;;0.32;0.30;;;14.50;60.10;;;;;;5034693;28;20491;-45
2021/01/22 00:56:58;;;;;;;0.80;0.25;;;14.50;60.00;;;;;;5034589;28;20405;-45
2021/01/22 00:59:24;;;;;;;0.63;0.30;;;14.50;60.10;;;;;;5034146;28;20032;-45
2021/01/22 01:01:50;;;;;;;0.40;0.30;;;14.50;60.10;;;;;;5034192;28;20021;-45
2021/01/22 01:04:16;;;;;;;0.28;0.20;;;14.50;60.10;;;;;;5034325;28;20502;-48
2021/01/22 01:06:41;;;;;;;0.82;0.30;;;14.50;60.80;;;;;;5016545;28;20095;-45
2021/01/22 01:09:08;;;;;;;0.90;0.20;;;14.50;60.20;;;;;;5034381;28;20038;-45
2021/01/22 01:11:33;;;;;;;0.90;0.30;;;14.50;60.20;;;;;;5034227;28;20034;-45
2021/01/22 01:13:59;;;;;;;1.58;0.88;;;14.40;60.20;;;;;;5035055;28;20049;-45
2021/01/22 01:16:24;;;;;;;0.40;0.30;;;14.40;60.20;;;;;;5016513;28;20021;-45
2021/01/22 01:18:50;;;;;;;0.20;0.20;;;14.50;60.20;;;;;;5034176;28;20017;-45
2021/01/22 01:21:16;;;;;;;0.95;0.30;;;14.40;60.20;;;;;;5033904;28;20053;-45
2021/01/22 01:23:41;;;;;;;0.20;0.20;;;14.40;60.30;;;;;;5034047;28;20025;-46
2021/01/22 01:26:07;;;;;;;0.50;0.30;;;14.40;60.30;;;;;;5033587;28;20492;-46
2021/01/22 01:28:33;;;;;;;0.40;0.20;;;14.40;60.30;;;;;;5033754;28;20049;-45
2021/01/22 01:30:58;;;;;;;0.38;0.20;;;14.40;60.30;;;;;;5033450;28;20029;-46
2021/01/22 01:33:24;;;;;;;1.80;0.30;;;14.20;60.20;;;;;;5033974;28;20032;-45
2021/01/22 01:35:51;;;;;;;0.50;0.20;;;14.40;60.40;;;;;;5033874;28;20026;-46
2021/01/22 01:38:21;;;;;;;1.08;0.30;;;14.20;60.20;;;;;;5033579;28;20041;-45
2021/01/22 01:40:47;;;;;;;0.43;0.30;;;14.40;60.40;;;;;;5033662;28;20104;-46
2021/01/22 01:43:13;;;;;;;0.13;0.13;;;14.30;60.30;;;;;;5033351;28;20040;-45
2021/01/22 01:45:41;;;;;;;0.63;0.20;;;14.30;60.30;;;;;;5033719;28;20033;-46
2021/01/22 01:48:11;;;;;;;0.68;0.35;;;14.40;60.30;;;;;;5033277;28;20578;-46
2021/01/22 01:50:38;;;;;;;1.17;0.30;;;14.40;60.40;;;;;;5033362;28;20109;-45
2021/01/22 01:53:04;;;;;;;0.65;0.30;;;14.30;60.30;;;;;;5033607;28;20045;-45
2021/01/22 01:55:32;;;;;;;1.65;0.22;;;14.40;60.40;;;;;;5033105;28;20036;-47
2021/01/22 01:57:59;;;;;;;0.60;0.28;;;14.30;60.30;;;;;;5033436;28;20022;-45
2021/01/22 02:00:25;;;;;;;1.00;0.25;;;14.30;60.40;;;;;;5033128;28;20392;-47
2021/01/22 02:02:50;;;;;;;0.25;0.20;;;14.30;60.40;;;;;;5033176;28;20028;-46
2021/01/22 02:05:16;;;;;;;0.20;0.20;;;14.30;60.40;;;;;;5033194;28;20375;-45
2021/01/22 02:07:41;;;;;;;0.32;0.20;;;14.30;60.40;;;;;;5015086;28;20540;-46
2021/01/22 02:10:08;;;;;;;1.00;0.30;;;14.20;60.40;;;;;;5032968;28;20083;-45
2021/01/22 02:12:34;;;;;;;0.40;0.20;;;14.30;60.40;;;;;;5033153;28;20056;-46
2021/01/22 02:15:00;;;;;;;0.50;0.20;;;14.20;60.40;;;;;;5033633;28;20083;-45
2021/01/22 02:17:27;;;;;;;0.20;0.20;;;14.20;60.40;;;;;;5032903;28;20029;-45
2021/01/22 02:20:14;;;;;;;0.30;0.20;;;14.30;60.50;;;;;;5033100;28;20060;-45
2021/01/22 02:22:39;;;;;;;0.60;0.28;;;14.20;60.40;;;;;;5032963;28;20146;-46
2021/01/22 02:25:09;;;;;;;1.20;0.40;;;14.20;60.40;;;;;;5032588;28;20029;-47
2021/01/22 02:27:37;;;;;;;1.45;0.20;;;14.20;60.40;;;;;;5032975;28;20025;-46
2021/01/22 02:30:07;;;;;;;0.30;0.20;;;14.20;60.40;;;;;;5032921;28;20524;-45
2021/01/22 02:32:34;;;;;;;0.40;0.20;;;14.20;60.50;;;;;;5032890;28;20056;-45
2021/01/22 02:35:06;;;;;;;0.32;0.20;;;14.20;60.50;;;;;;5032781;28;20025;-46
2021/01/22 02:37:32;;;;;;;0.43;0.22;;;14.20;60.50;;;;;;5032591;28;20017;-45
2021/01/22 02:40:02;;;;;;;0.52;0.17;;;14.20;60.50;;;;;;5032391;28;20514;-45
2021/01/22 02:42:29;;;;;;;0.30;0.22;;;14.20;60.50;;;;;;5031634;28;20399;-45
2021/01/22 02:44:55;;;;;;;0.52;0.28;;;14.20;60.60;;;;;;5032208;28;20545;-46
2021/01/22 02:47:23;;;;;;;0.30;0.15;;;14.20;60.60;;;;;;5032525;28;20025;-46
2021/01/22 02:49:52;;;;;;;0.43;0.20;;;14.10;60.60;;;;;;5032425;28;20022;-45
2021/01/22 02:52:18;;;;;;;0.63;0.30;;;14.10;60.90;;;;;;5032480;28;20037;-46
2021/01/22 02:54:51;;;;;;;0.30;0.20;;;14.40;60.80;;;;;;5014384;28;20029;-45
2021/01/22 02:57:28;;;;;;;0.28;0.20;;;14.10;60.60;;;;;;5032512;28;20411;-45
2021/01/22 03:00:02;;;;;;;0.20;0.20;;;14.10;60.60;;;;;;5032419;28;20115;-47
2021/01/22 03:03:08;;;;;;;0.20;0.20;;;14.10;60.60;;;;;;5032080;28;20481;-46
2021/01/22 03:05:37;;;;;;;0.50;0.30;;;14.10;60.60;;;;;;5031335;28;20056;-45
2021/01/22 03:08:07;;;;;;;0.75;0.20;;;14.10;60.60;;;;;;5032300;28;20066;-46
2021/01/22 03:10:35;;;;;;;;;;;14.10;60.70;;;;;;5014704;28;20094;-46
2021/01/22 03:13:01;;;;;;;0.28;0.20;;;14.10;60.60;;;;;;5032099;28;19905;-46
2021/01/22 03:15:27;;;;;;;0.30;0.20;;;14.10;60.60;;;;;;5032525;28;20435;-46
2021/01/22 03:18:09;;;;;;;0.63;0.22;;;14.10;60.70;;;;;;5032090;28;20021;-45
2021/01/22 03:20:35;;;;;;;0.43;0.20;;;14.10;60.60;;;;;;5032201;28;20033;-45
2021/01/22 03:23:00;;;;;;;0.70;0.20;;;14.00;60.60;;;;;;5031703;28;20018;-45
2021/01/22 03:25:26;;;;;;;0.52;0.20;;;14.00;60.60;;;;;;5031848;28;20080;-46
2021/01/22 03:27:51;;;;;;;0.10;0.10;;;14.00;60.60;;;;;;5032070;28;20021;-46
2021/01/22 03:30:18;;;;;;;0.70;0.20;;;14.00;60.70;;;;;;5031971;28;20761;-46
2021/01/22 03:32:43;;;;;;;0.30;0.20;;;14.00;60.70;;;;;;5032052;28;20037;-46
2021/01/22 03:35:09;;;;;;;1.05;0.40;;;14.00;60.70;;;;;;5031876;28;20044;-45
2021/01/22 03:37:35;;;;;;;1.48;0.10;;;14.00;60.70;;;;;;5031662;28;20052;-45
2021/01/22 03:40:00;;;;;;;0.35;0.28;;;14.00;60.70;;;;;;5031964;28;20496;-47
2021/01/22 03:42:26;;;;;;;0.30;0.20;;;14.00;60.70;;;;;;5031951;28;20022;-45
2021/01/22 03:44:51;;;;;;;0.10;0.10;;;13.90;60.60;;;;;;5031840;28;20037;-45
2021/01/22 03:47:17;;;;;;;0.38;0.17;;;14.00;60.70;;;;;;5031643;28;20020;-47
2021/01/22 03:49:43;;;;;;;0.20;0.10;;;14.00;60.70;;;;;;5014269;28;20083;-45
2021/01/22 03:52:08;;;;;;;1.15;0.30;;;14.00;60.70;;;;;;5031667;28;20068;-45
2021/01/22 03:54:34;;;;;;;0.25;0.10;;;13.90;60.70;;;;;;5034779;28;20017;-45
2021/01/22 03:56:59;;;;;;;1.05;0.20;;;13.90;60.60;;;;;;5035591;28;20033;-46
2021/01/22 03:59:25;;;;;;;1.67;0.20;;;13.90;60.70;;;;;;5035363;28;20059;-45
2021/01/22 04:01:50;;;;;;;0.80;0.20;;;13.90;60.70;;;;;;5035438;28;20622;-47
2021/01/22 04:04:16;;;;;;;1.33;0.40;;;13.90;60.60;;;;;;5035428;28;20033;-47
2021/01/22 04:06:42;;;;;;;0.55;0.20;;;13.90;60.60;;;;;;5035484;28;20025;-49
2021/01/22 04:09:07;;;;;;;0.35;0.20;;;13.90;60.70;;;;;;5035397;28;20064;-46
2021/01/22 04:11:33;;;;;;;0.20;0.13;;;13.90;60.70;;;;;;5035463;28;20045;-48
2021/01/22 04:13:58;;;;;;;0.38;0.20;;;13.90;60.70;;;;;;5035392;28;20026;-47
2021/01/22 04:16:24;;;;;;;0.75;0.20;;;13.90;60.70;;;;;;5035858;28;20143;-46
2021/01/22 04:18:50;;;;;;;0.32;0.20;;;13.90;60.70;;;;;;5035446;28;20021;-47
2021/01/22 04:21:15;;;;;;;0.20;0.20;;;13.90;60.70;;;;;;5035023;28;20464;-45
2021/01/22 04:23:41;;;;;;;1.35;0.20;;;13.90;60.80;;;;;;5035104;28;20026;-45
2021/01/22 04:26:07;;;;;;;0.50;0.20;;;13.80;60.70;;;;;;5035151;28;20034;-45
2021/01/22 04:28:32;;;;;;;0.65;0.20;;;13.80;60.80;;;;;;5035257;28;20065;-45
2021/01/22 04:30:58;;;;;;;0.40;0.20;;;13.80;60.70;;;;;;5034830;28;20030;-45
2021/01/22 04:33:23;;;;;;;0.77;0.30;;;13.80;60.70;;;;;;5034831;28;20036;-45
2021/01/22 04:35:49;;;;;;;0.20;0.20;;;13.80;60.70;;;;;;5034809;28;20025;-45
2021/01/22 04:38:15;;;;;;;0.60;0.47;;;13.80;60.70;;;;;;5034746;28;20032;-46
2021/01/22 04:40:40;;;;;;;0.85;0.30;;;13.80;60.80;;;;;;5034588;28;20476;-45
2021/01/22 04:43:06;;;;;;;0.55;0.30;;;13.80;60.80;;;;;;5034493;28;20034;-45
2021/01/22 04:45:31;;;;;;;0.30;0.30;;;13.80;60.70;;;;;;5034782;28;20124;-45
2021/01/22 04:47:59;;;;;;;0.88;0.30;;;14.00;60.90;;;;;;5016992;28;20052;-46
2021/01/22 04:50:25;;;;;;;1.75;0.20;;;13.80;60.80;;;;;;5034515;28;20531;-46
2021/01/22 04:52:53;;;;;;;1.13;0.40;;;13.80;60.80;;;;;;5034781;28;20026;-47
2021/01/22 04:55:21;;;;;;;0.20;0.20;;;13.80;60.80;;;;;;5034766;28;20443;-46
2021/01/22 04:57:48;;;;;;;0.20;0.20;;;13.80;60.80;;;;;;5017464;28;20041;-45
2021/01/22 05:00:15;;;;;;;0.47;0.30;;;14.10;61.00;;;;;;5016628;28;20480;-45
2021/01/22 05:02:41;;;;;;;1.33;0.20;;;13.80;60.80;;;;;;5034615;28;20431;-46
2021/01/22 05:05:08;;;;;;;0.43;0.30;;;13.80;60.80;;;;;;5033820;28;20133;-45
2021/01/22 05:07:34;;;;;;;2.45;0.40;;;13.70;60.70;;;;;;5034051;28;20033;-45
2021/01/22 05:10:00;;;;;;;0.75;0.35;;;13.70;60.70;;;;;;5034366;28;20021;-47
2021/01/22 05:12:35;;;;;;;2.13;0.40;;;13.70;60.80;;;;;;5034207;28;20018;-46
2021/01/22 05:15:19;;;;;;;0.68;0.30;;;13.70;60.80;;;;;;5034936;28;20087;-45
2021/01/22 05:17:58;;;;;;;0.80;0.28;;;13.70;60.80;;;;;;5033955;28;20572;-46
2021/01/22 05:20:35;;;;;;;0.52;0.25;;;13.50;60.70;;;;;;5034269;28;20026;-46
2021/01/22 05:23:09;;;;;;;0.60;0.20;;;13.70;60.80;;;;;;5034147;28;20037;-45
2021/01/22 05:26:13;;;;;;;0.43;0.25;;;13.70;60.70;;;;;;5034019;28;20040;-46
2021/01/22 05:28:48;;;;;;;0.93;0.30;;;13.70;60.90;;;;;;5033792;28;20104;-46
2021/01/22 05:31:18;;;;;;;0.47;0.30;;;13.70;61.00;;;;;;5033817;28;20028;-45
2021/01/22 05:33:57;;;;;;;0.57;0.30;;;13.70;61.00;;;;;;5033760;28;20057;-45
2021/01/22 05:36:24;;;;;;;0.60;0.40;;;13.70;60.90;;;;;;5033688;28;20033;-45
2021/01/22 05:38:51;;;;;;;0.47;0.20;;;13.70;60.90;;;;;;5015502;28;20027;-45
2021/01/22 05:41:17;;;;;;;0.68;0.20;;;13.80;61.00;;;;;;5033431;28;20116;-47
2021/01/22 05:43:43;;;;;;;1.73;0.40;;;13.70;60.90;;;;;;5033367;28;20628;-45
2021/01/22 05:46:16;;;;;;;0.73;0.47;;;13.80;61.00;;;;;;5033595;28;20078;-46
2021/01/22 05:48:42;;;;;;;1.38;0.20;;;13.80;61.80;;;;;;5033512;28;20030;-45
2021/01/22 05:51:08;;;;;;;0.35;0.20;;;13.80;61.60;;;;;;5033396;28;20018;-45
2021/01/22 05:53:44;;;;;;;1.25;0.43;;;13.80;61.60;;;;;;5033622;28;20021;-49
2021/01/22 05:56:15;;;;;;;0.52;0.38;;;13.80;61.70;;;;;;5033662;28;20361;-44
2021/01/22 05:58:43;;;;;;;0.40;0.20;;;13.80;61.60;;;;;;5033358;28;20045;-45
2021/01/22 06:01:11;;;;;;;0.95;0.50;;;13.80;61.40;;;;;;5033513;28;20361;-44
2021/01/22 06:03:38;;;;;;;0.60;0.30;;;13.80;61.40;;;;;;5033292;28;20108;-45
2021/01/22 06:06:05;;;;;;;1.05;0.30;;;13.80;61.50;;;;;;5033476;28;20029;-47
2021/01/22 06:08:31;;;;;;;1.02;0.47;;;13.90;61.90;;;;;;5033450;28;20052;-45
2021/01/22 06:10:59;;;;;;;0.88;0.30;;;13.90;61.90;;;;;;5033218;28;20017;-45
2021/01/22 06:13:33;;;;;;;0.60;0.30;;;14.00;61.90;;;;;;5032912;28;20133;-45
2021/01/22 06:16:12;;;;;;;0.38;0.20;;;14.10;61.80;;;;;;5033541;28;20049;-45
2021/01/22 06:18:39;;;;;;;0.70;0.30;;;14.20;61.80;;;;;;5032668;28;20025;-45
2021/01/22 06:21:14;;;;;;;0.40;0.20;;;14.30;61.60;;;;;;5032825;28;20026;-47
2021/01/22 06:23:41;;;;;;;0.63;0.30;;;14.40;61.60;;;;;;5032792;28;20026;-47
2021/01/22 06:26:09;;;;;;;1.60;0.40;;;14.50;61.60;;;;;;5032694;28;20052;-45
2021/01/22 06:28:36;;;;;;;1.48;0.35;;;14.60;61.60;;;;;;5032881;28;20093;-45
2021/01/22 06:31:04;;;;;;;0.40;0.30;;;14.70;71.70;;;;;;5032868;28;20056;-45
2021/01/22 06:33:29;;;;;;;1.23;0.40;;;14.70;61.20;;;;;;5015131;28;20107;-45
2021/01/22 06:35:55;;;;;;;1.40;0.40;;;14.80;61.10;;;;;;5014813;28;20487;-48
2021/01/22 06:38:23;;;;;;;0.40;0.30;;;14.70;60.90;;;;;;5032470;28;20021;-44
2021/01/22 06:40:51;;;;;;;2.72;0.82;;;14.90;60.80;;;;;;5032685;28;20029;-45
2021/01/22 06:43:17;;;;;;;0.43;0.20;;;14.90;60.70;;;;;;5032678;28;20022;-46
2021/01/22 06:45:43;;;;;;;1.42;0.40;;;14.90;60.60;;;;;;5032216;28;20484;-45
2021/01/22 06:48:09;;;;;;;0.95;0.30;;;14.70;60.40;;;;;;5032647;28;20028;-44
2021/01/22 06:50:37;;;;;;;0.40;0.20;;;14.90;60.50;;;;;;5032470;28;20030;-44
2021/01/22 06:53:10;;;;;;;0.77;0.30;;;14.90;60.50;;;;;;5032541;28;20025;-44
2021/01/22 06:55:51;;;;;;;1.08;0.40;;;14.90;60.50;;;;;;5032486;28;20036;-44
2021/01/22 06:58:30;;;;;;;0.98;0.30;;;14.80;60.50;;;;;;5032284;28;20040;-45
2021/01/22 07:01:25;;;;;;;2.17;0.40;;;14.80;60.30;;;;;;5032392;28;20108;-44
2021/01/22 07:03:51;;;;;;;0.70;0.40;;;14.80;59.90;;;;;;5031960;28;20526;-44
2021/01/22 07:06:34;;;;;;;1.63;0.60;;;14.80;60.00;;;;;;5032384;28;20037;-44
2021/01/22 07:09:00;;;;;;;1.30;0.30;;;14.80;59.90;;;;;;5031975;28;20018;-45
2021/01/22 07:11:45;;;;;;;2.38;0.52;;;14.70;60.00;;;;;;5032056;28;20109;-43
2021/01/22 07:14:32;;;;;;;1.52;0.60;;;14.70;60.00;;;;;;5031742;28;20033;-43
2021/01/22 07:17:00;;;;;;;4.03;0.98;;;14.80;59.80;;;;;;5031654;28;20058;-44
2021/01/22 07:19:27;;;;;;;5.65;1.17;;;14.80;60.10;;;;;;5032015;28;20049;-45
2021/01/22 07:21:52;;;;;;;3.85;0.60;;;14.80;60.60;;;;;;5031888;28;20091;-44
2021/01/22 07:24:20;;;;;;;2.42;0.80;;;14.80;60.60;;;;;;5031992;28;20025;-46
2021/01/22 07:26:47;;;;;;;2.47;0.50;;;14.80;60.50;;;;;;5031941;28;20096;-45
2021/01/22 07:29:15;;;;;;;2.42;0.68;;;14.80;60.40;;;;;;5036382;28;20022;-45
2021/01/22 07:31:57;;;;;;;4.05;0.90;;;14.80;60.40;;;;;;5037688;28;20498;-47
2021/01/22 07:34:41;;;;;;;3.22;0.90;;;14.80;60.40;;;;;;5037698;28;20128;-45
2021/01/22 07:37:17;;;;;;;2.28;0.75;;;14.80;60.30;;;;;;5038356;28;20425;-46
2021/01/22 07:39:45;;;;;;;2.03;0.60;;;14.80;60.40;;;;;;5037720;28;20025;-43
2021/01/22 07:42:22;;;;;;;2.25;0.70;;;14.80;60.40;;;;;;5037302;28;20126;-43
2021/01/22 07:44:50;;;;;;;1.30;0.47;;;14.80;60.40;;;;;;5037885;28;20048;-42
2021/01/22 07:47:29;;;;;;;3.28;0.93;;;14.80;60.40;;;;;;5038281;28;20032;-43
2021/01/22 07:50:00;;;;;;;2.35;0.70;;;14.80;60.30;;;;;;5038338;28;20026;-44
2021/01/22 07:52:27;;;;;;;3.30;0.70;;;14.80;60.60;;;;;;5038283;28;20017;-43
2021/01/22 07:54:53;;;;;;;2.63;0.65;;;14.80;60.60;;;;;;5038236;28;20025;-42
2021/01/22 07:57:21;;;;;;;4.55;0.80;;;14.90;60.20;;;;;;5037976;28;20503;-44
2021/01/22 07:59:47;;;;;;;1.63;0.50;;;14.70;60.00;;;;;;5037964;28;20056;-44
2021/01/22 08:02:15;;;;;;;2.90;0.82;;;14.90;59.80;;;;;;5038036;28;20661;-43
2021/01/22 08:04:41;;;;;;;2.97;0.80;;;15.00;59.80;;;;;;5037875;28;20436;-44
2021/01/22 08:07:06;;;;;;;4.65;0.73;;;15.00;59.70;;;;;;5038117;28;20099;-44
2021/01/22 08:09:32;;;;;;;2.80;0.98;;;15.70;60.00;;;;;;5020157;28;20029;-45
2021/01/22 08:12:09;;;;;;;1.80;0.60;;;15.00;59.50;;;;;;5038021;28;20045;-45
2021/01/22 08:14:36;;;;;;;2.08;0.70;;;14.90;59.40;;;;;;5037801;28;20025;-44
2021/01/22 08:17:04;;;;;;;1.52;0.50;;;15.00;59.60;;;;;;5020645;28;20056;-44
2021/01/22 08:19:31;;;;;;;2.67;0.65;;;15.00;59.60;;;;;;5037703;28;20484;-44
2021/01/22 08:21:57;;;;;;;3.47;0.75;;;15.00;59.80;;;;;;5037652;28;20120;-45
2021/01/22 08:24:24;;;;;;;4.05;0.80;;;15.00;59.70;;;;;;5018252;28;20132;-45
2021/01/22 08:27:04;;;;;;;2.45;0.73;;;15.00;60.00;;;;;;5036797;28;20028;-46
2021/01/22 08:29:32;;;;;;;1.67;0.60;;;15.10;59.10;;;;;;5037145;28;20079;-45
2021/01/22 08:31:58;;;;;;;1.85;0.73;;;15.30;58.80;;;;;;5037114;28;20033;-45
2021/01/22 08:34:24;;;;;;;2.78;0.77;;;15.40;58.50;;;;;;5037173;28;20376;-46
2021/01/22 08:36:51;;;;;;;1.55;0.65;;;15.50;58.30;;;;;;5037250;28;20028;-46
2021/01/22 08:39:17;;;;;;;0.88;0.40;;;15.70;57.70;;;;;;5037028;28;20112;-45
2021/01/22 08:41:43;;;;;;;1.88;0.60;;;15.90;57.30;;;;;;5034201;28;20052;-43
2021/01/22 08:44:08;;;;;;;2.50;0.60;;;15.90;57.30;;;;;;5034567;28;20137;-43
2021/01/22 08:46:45;;;;;;;1.00;0.70;;;16.00;57.20;;;;;;5034269;28;20428;-44
2021/01/22 08:49:15;;;;;;;1.77;0.60;;;16.20;56.90;;;;;;5034783;28;20096;-45
2021/01/22 08:51:41;;;;;;;;;;;16.20;56.80;;;;;;5034687;28;20045;-45
2021/01/22 08:54:07;;;;;;;3.30;0.90;;;16.20;56.80;;;;;;5034455;28;20423;-43
2021/01/22 08:56:33;;;;;;;1.95;0.80;;;16.30;56.70;;;;;;5034654;28;20412;-45
2021/01/22 08:59:03;;;;;;;3.63;0.90;;;16.40;56.60;;;;;;5034294;28;20560;-43
2021/01/22 09:01:48;;;;;;;2.72;0.60;;;16.30;56.50;;;;;;5034642;28;20021;-45
2021/01/22 09:04:34;;;;;;;2.45;0.50;;;16.30;56.60;;;;;;5033864;28;20045;-43
2021/01/22 09:07:01;;;;;;;1.40;0.52;;;16.30;56.70;;;;;;5034461;28;20030;-45
2021/01/22 09:09:42;;;;;;;2.05;0.90;;;16.40;56.60;;;;;;5033945;28;20033;-44
2021/01/22 09:12:24;;;;;;;1.38;0.60;;;16.40;56.60;;;;;;5033953;28;20080;-45
2021/01/22 09:15:07;;;;;;;3.25;0.70;;;16.30;56.60;;;;;;5034629;28;20057;-44
2021/01/22 09:17:49;;;;;;;1.25;0.70;;;16.40;56.60;;;;;;5014395;28;20111;-44
2021/01/22 09:20:20;;;;;;;3.10;0.70;;;16.20;56.50;;;;;;5014136;28;20465;-46
2021/01/22 09:22:49;;;;;;;1.75;0.70;;;16.30;56.60;;;;;;5014024;28;20608;-46
2021/01/22 09:25:19;;;;;;;1.55;0.77;;;16.30;56.60;;;;;;5014065;28;20045;-44
2021/01/22 09:27:45;;;;;;;3.38;0.93;;;16.40;56.60;;;;;;5014183;28;20022;-45
2021/01/22 09:30:13;;;;;;;2.90;0.82;;;16.30;56.40;;;;;;5014202;28;20029;-45
2021/01/22 09:32:51;;;;;;;3.58;0.65;;;16.40;56.50;;;;;;5013836;28;20542;-45
2021/01/22 09:35:26;;;;;;;2.38;1.10;;;16.40;56.50;;;;;;5014064;28;20121;-45
2021/01/22 09:37:52;;;;;;;1.15;0.50;;;16.40;56.50;;;;;;5013971;28;20021;-45
2021/01/22 09:40:19;;;;;;;2.97;0.98;;;16.40;56.40;;;;;;5013946;28;20045;-46
2021/01/22 09:42:45;;;;;;;1.40;0.73;;;16.40;56.40;;;;;;5013658;28;20022;-46
2021/01/22 09:45:12;;;;;;;1.60;0.63;;;16.40;56.50;;;;;;5013457;28;20041;-45
2021/01/22 09:47:38;;;;;;;1.23;0.70;;;16.30;56.40;;;;;;5013981;28;20034;-45
2021/01/22 09:50:05;;;;;;;1.65;0.57;;;16.30;56.50;;;;;;5013569;28;20033;-43
2021/01/22 09:52:33;;;;;;;1.63;0.55;;;16.30;56.60;;;;;;5013447;28;20026;-43
2021/01/22 09:54:58;;;;;;;1.13;0.50;;;16.20;56.60;;;;;;5013455;28;20451;-45
2021/01/22 09:57:24;;;;;;;1.20;0.82;;;16.20;56.70;;;;;;5013487;28;20101;-46
2021/01/22 09:59:50;;;;;;;2.55;0.60;;;16.20;56.70;;;;;;4995650;28;20380;-44
2021/01/22 10:02:15;;;;;;;2.13;0.95;;;16.20;56.70;;;;;;5013275;28;20026;-45
2021/01/22 10:04:41;;;;;;;1.80;0.80;;;16.20;56.80;;;;;;5013139;28;20072;-46
2021/01/22 10:07:06;;;;;;;2.38;0.70;;;16.10;56.70;;;;;;5013388;28;20024;-46
2021/01/22 10:09:32;;;;;;;2.05;0.80;;;16.20;56.90;;;;;;5013700;28;20564;-49
2021/01/22 10:11:59;;;;;;;2.45;0.57;;;16.20;56.90;;;;;;5012959;28;20033;-47
2021/01/22 10:14:25;;;;;;;0.85;0.43;;;16.20;57.00;;;;;;5013072;28;20029;-47
2021/01/22 10:16:51;;;;;;;2.00;0.95;;;16.20;57.20;;;;;;5029710;28;20129;-47
2021/01/22 10:19:16;;;;;;;1.17;0.50;;;16.30;57.20;;;;;;5032999;28;20018;-51
2021/01/22 10:21:42;;;;;;;2.17;0.93;;;16.40;57.20;;;;;;5033028;28;20017;-46
2021/01/22 10:24:08;;;;;;;1.35;0.60;;;16.40;57.00;;;;;;5033150;28;20037;-46
2021/01/22 10:26:33;;;;;;;4.13;0.80;;;16.50;57.20;;;;;;5033029;28;20084;-49
2021/01/22 10:28:59;;;;;;;6.47;0.73;;;16.50;57.00;;;;;;5032879;28;20087;-47
2021/01/22 10:31:25;;;;;;;2.03;0.45;;;16.60;56.80;;;;;;5032593;28;20033;-47
2021/01/22 10:33:50;;;;;;;2.05;0.98;;;16.70;56.60;;;;;;5032557;28;20025;-46
2021/01/22 10:36:16;;;;;;;1.92;0.70;;;16.70;56.30;;;;;;5032412;28;20033;-46
2021/01/22 10:38:42;;;;;;;1.70;0.57;;;16.70;56.10;;;;;;5032729;28;20026;-48
2021/01/22 10:41:08;;;;;;;2.80;0.98;;;16.80;56.10;;;;;;5032361;28;20433;-46
2021/01/22 10:43:34;;;;;;;4.00;0.75;;;16.80;56.20;;;;;;5032353;28;20032;-47
2021/01/22 10:46:00;;;;;;;1.63;0.70;;;16.80;56.20;;;;;;5032582;28;20045;-46
2021/01/22 10:48:26;;;;;;;2.10;0.68;;;16.80;56.20;;;;;;5032185;28;20025;-46
2021/01/22 10:50:52;;;;;;;1.65;0.68;;;16.80;56.20;;;;;;5032446;28;20022;-47
2021/01/22 10:53:18;;;;;;;2.75;0.70;;;16.80;56.30;;;;;;5032536;28;20033;-47
2021/01/22 10:55:45;;;;;;;2.42;0.90;;;16.80;56.20;;;;;;5032121;28;20025;-48
2021/01/22 10:58:11;;;;;;;1.85;0.68;;;16.80;56.60;;;;;;5032275;28;20045;-47
2021/01/22 11:00:36;;;;;;;1.33;0.60;;;16.80;56.30;;;;;;5032401;28;20028;-47
2021/01/22 11:03:03;;;;;;;1.00;0.50;;;16.80;56.40;;;;;;5031565;28;20022;-46
2021/01/22 11:05:29;;;;;;;1.20;0.60;;;16.70;56.30;;;;;;5031898;28;20124;-47
2021/01/22 11:07:54;;;;;;;3.83;0.68;;;16.70;56.40;;;;;;5032309;28;20096;-47
2021/01/22 11:10:20;;;;;;;1.92;0.52;;;16.80;56.40;;;;;;5032101;28;20033;-48
2021/01/22 11:12:56;;;;;;;2.35;0.60;;;16.70;56.50;;;;;;5032014;28;20040;-47
2021/01/22 11:15:21;;;;;;;3.20;0.50;;;16.90;56.50;;;;;;5032818;28;20040;-46
2021/01/22 11:17:53;;;;;;;2.95;1.15;;;16.70;56.50;;;;;;5031954;28;20029;-47
2021/01/22 11:20:19;;;;;;;2.03;0.88;;;16.70;56.50;;;;;;5031791;28;20064;-49
2021/01/22 11:22:46;;;;;;;1.55;0.50;;;16.60;56.60;;;;;;5031852;28;20480;-47
2021/01/22 11:25:13;;;;;;;1.35;0.55;;;16.60;56.70;;;;;;5032021;28;20049;-47
2021/01/22 11:27:39;;;;;;;2.05;0.63;;;16.50;56.80;;;;;;5032056;28;20097;-48
2021/01/22 11:30:06;;;;;;;1.35;0.70;;;16.50;56.80;;;;;;5032079;28;20439;-47
2021/01/22 11:32:31;;;;;;;1.17;0.52;;;16.40;56.80;;;;;;5031918;28;20017;-46
2021/01/22 11:34:57;;;;;;;2.38;0.73;;;16.40;56.90;;;;;;5031915;28;20068;-48
2021/01/22 11:37:22;;;;;;;2.00;0.68;;;16.30;57.10;;;;;;5031730;28;20029;-48
2021/01/22 11:39:48;;;;;;;1.48;0.52;;;16.30;57.10;;;;;;5031885;28;20429;-47
2021/01/22 11:42:14;;;;;;;1.67;0.50;;;16.20;57.10;;;;;;5013772;28;20025;-47
2021/01/22 11:44:39;;;;;;;1.48;0.60;;;16.10;57.20;;;;;;5031804;28;20014;-46
2021/01/22 11:47:06;;;;;;;1.30;0.70;;;16.30;57.30;;;;;;5031907;28;20542;-44
2021/01/22 11:49:31;;;;;;;2.88;0.82;;;16.10;57.30;;;;;;5031338;28;20021;-46
2021/01/22 11:51:57;;;;;;;1.23;0.70;;;16.10;57.20;;;;;;5031819;28;20034;-47
2021/01/22 11:54:23;;;;;;;1.85;0.47;;;16.10;57.30;;;;;;5031396;28;20025;-47
2021/01/22 11:56:51;;;;;;;1.05;0.65;;;16.00;57.30;;;;;;5013625;28;20180;-47
2021/01/22 11:59:20;;;;;;;2.00;0.68;;;16.00;57.20;;;;;;5031761;28;20095;-47
2021/01/22 12:01:47;;;;;;;1.02;0.60;;;16.10;57.20;;;;;;5031282;28;20014;-47
2021/01/22 12:04:14;;;;;;;0.77;0.50;;;16.10;57.20;;;;;;5031210;28;20128;-47
2021/01/22 12:06:40;;;;;;;4.95;0.70;;;16.10;57.40;;;;;;5030839;28;20376;-48
2021/01/22 12:09:05;;;;;;;2.25;0.70;;;16.10;57.40;;;;;;5031161;28;20014;-48
2021/01/22 12:11:32;;;;;;;2.45;1.13;;;16.20;57.50;;;;;;5031332;28;20029;-47
2021/01/22 12:13:58;;;;;;;1.55;0.85;;;16.30;57.40;;;;;;5031607;28;20040;-47
2021/01/22 12:16:24;;;;;;;1.17;0.70;;;16.30;57.30;;;;;;5034671;28;20037;-46
2021/01/22 12:18:49;;;;;;;2.50;0.60;;;16.30;57.20;;;;;;5035314;28;20021;-47
2021/01/22 12:21:15;;;;;;;4.40;0.82;;;16.30;57.20;;;;;;5035110;28;20506;-47
2021/01/22 12:23:43;;;;;;;2.40;1.00;;;16.30;57.10;;;;;;5034922;28;20036;-49
2021/01/22 12:26:10;;;;;;;2.20;0.75;;;16.30;57.20;;;;;;5034881;28;20442;-48
2021/01/22 12:28:39;;;;;;;1.52;0.50;;;16.30;57.30;;;;;;5034622;28;20013;-48
2021/01/22 12:31:06;;;;;;;1.30;0.40;;;16.30;57.20;;;;;;5034977;28;20057;-48
2021/01/22 12:33:32;;;;;;;5.25;0.90;;;16.30;57.10;;;;;;5034774;28;20041;-48
2021/01/22 12:35:58;;;;;;;2.33;0.55;;;16.30;57.20;;;;;;5034529;28;20484;-47
2021/01/22 12:38:24;;;;;;;4.38;0.63;;;16.50;57.40;;;;;;5034671;28;20056;-49
2021/01/22 12:40:50;;;;;;;2.13;0.60;;;16.30;57.50;;;;;;5034821;28;20025;-49
2021/01/22 12:43:15;;;;;;;2.78;0.50;;;16.30;57.30;;;;;;5035028;28;20018;-48
2021/01/22 12:45:41;;;;;;;1.83;0.80;;;;;;;;;;5034982;28;20476;-47
2021/01/22 12:48:07;;;;;;;1.60;0.60;;;16.30;56.70;;;;;;5034604;28;20496;-49
2021/01/22 12:50:33;;;;;;;1.38;0.65;;;16.30;57.20;;;;;;5034721;28;20026;-48
2021/01/22 12:52:59;;;;;;;1.95;0.52;;;16.30;57.30;;;;;;5034351;28;20468;-51